CYBW

Calgary / Springbank Airport

Calgary, Alberta, Canada
METAR CYBW 260400Z AUTO 30004KT 9SM CLR 18/05 A2971 RMK SLP047 DENSITY ALT 5300FT
Observed Flight Rules
May-26 @ 04:00 UTC (26 minutes ago) Visual Flight Rules
Wind Visibility Clouds
300° at 4 knots 9 miles
  • Clear skies
Temperatures Readings
Current 18°C / 64°F
Dewpoint 5°C / 41°F
Humidity 43%
Altimeter 29.71" Hg
Pressure 1004.7 hPa
Elevation 1200
METAR CYBW 260400Z AUTO 30004KT 9SM CLR 18/05 A2971 RMK SLP047 DENSITY ALT 5300FT
Observed Flight Rules
May-26 @ 04:00 UTC
(26 minutes ago)
VFR
Wind Visibility
300° at 4 knots 9 miles
Clouds
  • Clear skies
Temperature Dewpoint
18°C / 64°F 5°C / 41°F
Humidity Altimeter Pressure
43% 29.71" Hg 1004.7 hPa